Time;durP1;ratioP1;P1;durP2;ratioP2;P2;SDS_P1;SDS_P2;PMS_P1;PMS_P2;Temp;Humidity;BMP_temperature;BMP_pressure;BME280_temperature;BME280_humidity;BME280_pressure;Samples;Min_cycle;Max_cycle;Signal;HPM_P1;HPM_P2
2023/03/11 00:00:32;;;;;;;20.10;13.60;;;;;;;;;;4995875;28;20101;-68
2023/03/11 00:03:00;;;;;;;18.73;11.75;;;;;;;;;;4995673;28;20485;-68
2023/03/11 00:05:29;;;;;;;14.30;10.95;;;;;;;;;;4995597;28;20097;-68
2023/03/11 00:07:57;;;;;;;15.45;11.13;;;;;;;;;;4995516;28;20431;-68
2023/03/11 00:10:26;;;;;;;14.52;10.60;;;;;;;;;;4995227;28;20042;-68
2023/03/11 00:12:56;;;;;;;22.30;13.27;;;;;;;;;;4995216;28;20070;-68
2023/03/11 00:15:24;;;;;;;21.63;14.07;;;;;;;;;;4995190;28;20046;-68
2023/03/11 00:17:52;;;;;;;17.75;12.15;;;;;;;;;;4995346;28;20042;-68
2023/03/11 00:20:21;;;;;;;16.27;11.20;;;;;;;;;;4995421;28;20452;-68
2023/03/11 00:22:50;;;;;;;16.45;11.07;;;;;;;;;;4995537;28;20134;-68
2023/03/11 00:25:18;;;;;;;16.17;11.15;;;;;;;;;;4995448;28;20046;-68
2023/03/11 00:27:46;;;;;;;13.38;10.63;;;;;;;;;;4995327;28;20050;-68
2023/03/11 00:30:15;;;;;;;18.25;11.15;;;;;;;;;;4975202;28;20062;-69
2023/03/11 00:32:43;;;;;;;15.75;11.32;;;;;;;;;;4995232;28;20049;-68
2023/03/11 00:35:15;;;;;;;15.90;10.75;;;;;;;;;;4974803;28;20043;-68
2023/03/11 00:37:44;;;;;;;14.23;10.65;;;;;;;;;;4995177;28;20073;-68
2023/03/11 00:40:16;;;;;;;14.52;10.43;;;;;;;;;;4974937;28;20555;-68
2023/03/11 00:42:44;;;;;;;14.75;10.88;;;;;;;;;;4974450;28;20046;-68
2023/03/11 00:45:11;;;;;;;14.15;10.85;;;;;;;;;;4974757;28;20071;-68
2023/03/11 00:47:39;;;;;;;14.05;10.80;;;;;;;;;;4974173;28;20110;-68
2023/03/11 00:50:08;;;;;;;16.02;11.63;;;;;;;;;;4973525;28;20047;-68
2023/03/11 00:52:36;;;;;;;14.70;11.10;;;;;;;;;;4994936;28;20046;-68
2023/03/11 00:55:03;;;;;;;15.70;12.02;;;;;;;;;;4974160;28;20046;-68
2023/03/11 00:57:32;;;;;;;15.48;11.20;;;;;;;;;;4974024;28;20046;-68
2023/03/11 01:00:00;;;;;;;14.70;11.10;;;;;;;;;;4974371;28;20078;-67
2023/03/11 01:02:28;;;;;;;14.90;11.57;;;;;;;;;;4976784;28;20038;-68
2023/03/11 01:04:56;;;;;;;16.15;11.65;;;;;;;;;;4994760;28;20396;-67
2023/03/11 01:07:23;;;;;;;17.08;12.13;;;;;;;;;;4976016;28;20404;-67
2023/03/11 01:09:51;;;;;;;15.77;11.98;;;;;;;;;;4994429;28;20440;-67
2023/03/11 01:12:18;;;;;;;16.17;11.93;;;;;;;;;;4975497;28;20043;-67
2023/03/11 01:14:45;;;;;;;15.38;12.27;;;;;;;;;;4973643;28;20050;-68
2023/03/11 01:17:13;;;;;;;17.48;13.00;;;;;;;;;;4974746;28;20101;-68
2023/03/11 01:19:41;;;;;;;18.02;12.60;;;;;;;;;;4973526;28;20074;-68
2023/03/11 01:22:09;;;;;;;19.52;13.15;;;;;;;;;;4973700;28;20050;-68
2023/03/11 01:24:36;;;;;;;19.48;13.90;;;;;;;;;;4994184;28;20453;-68
2023/03/11 01:27:04;;;;;;;17.80;13.60;;;;;;;;;;4973374;28;20047;-68
2023/03/11 01:29:31;;;;;;;18.33;13.85;;;;;;;;;;4993885;28;20035;-68
2023/03/11 01:31:59;;;;;;;21.20;15.48;;;;;;;;;;4973265;28;20043;-69
2023/03/11 01:34:26;;;;;;;20.00;14.63;;;;;;;;;;4960056;28;20501;-69
2023/03/11 01:36:54;;;;;;;21.83;16.10;;;;;;;;;;4973237;28;20576;-67
2023/03/11 01:39:21;;;;;;;22.80;15.27;;;;;;;;;;4975138;28;20042;-69
2023/03/11 01:41:48;;;;;;;22.80;17.35;;;;;;;;;;4993939;28;20093;-70
2023/03/11 01:44:16;;;;;;;24.05;18.13;;;;;;;;;;4974551;28;20520;-69
2023/03/11 01:46:53;;;;;;;28.58;18.80;;;;;;;;;;4972917;28;20061;-69
2023/03/11 01:49:24;;;;;;;27.10;18.63;;;;;;;;;;4975321;28;20472;-69
2023/03/11 01:51:53;;;;;;;25.85;18.73;;;;;;;;;;4973167;28;20050;-69
2023/03/11 01:54:22;;;;;;;27.52;19.27;;;;;;;;;;4974735;28;20551;-69
2023/03/11 01:56:50;;;;;;;24.67;17.73;;;;;;;;;;4973019;28;20460;-69
2023/03/11 01:59:20;;;;;;;26.83;18.48;;;;;;;;;;4991727;28;20065;-69
2023/03/11 02:01:59;;;;;;;27.40;17.83;;;;;;;;;;4972121;28;20042;-69
2023/03/11 02:04:28;;;;;;;23.65;17.35;;;;;;;;;;4959587;28;20051;-68
2023/03/11 02:06:56;;;;;;;25.02;16.92;;;;;;;;;;4972771;28;20050;-69
2023/03/11 02:09:25;;;;;;;23.60;16.75;;;;;;;;;;4992361;28;20080;-69
2023/03/11 02:11:53;;;;;;;26.90;16.88;;;;;;;;;;4972849;28;20102;-69
2023/03/11 02:14:21;;;;;;;28.52;18.55;;;;;;;;;;4974621;28;20070;-69
2023/03/11 02:16:49;;;;;;;29.38;19.38;;;;;;;;;;4972715;28;20058;-69
2023/03/11 02:19:19;;;;;;;25.27;18.40;;;;;;;;;;4973770;28;20661;-69
2023/03/11 02:21:47;;;;;;;24.63;18.52;;;;;;;;;;4972671;28;20074;-69
2023/03/11 02:24:33;;;;;;;25.65;18.83;;;;;;;;;;4990851;28;20070;-69
2023/03/11 02:27:02;;;;;;;27.63;19.35;;;;;;;;;;4972513;28;20579;-69
2023/03/11 02:29:30;;;;;;;25.63;18.13;;;;;;;;;;4975381;28;20042;-69
2023/03/11 02:31:58;;;;;;;24.58;18.13;;;;;;;;;;4993233;28;20058;-69
2023/03/11 02:34:27;;;;;;;28.50;18.35;;;;;;;;;;4975020;28;20050;-69
2023/03/11 02:36:54;;;;;;;30.85;19.80;;;;;;;;;;4972563;28;20113;-69
2023/03/11 02:39:33;;;;;;;27.25;20.10;;;;;;;;;;4974349;28;20047;-69
2023/03/11 02:42:04;;;;;;;27.40;19.48;;;;;;;;;;4972423;28;20050;-69
2023/03/11 02:44:33;;;;;;;24.45;18.98;;;;;;;;;;4975706;28;20042;-69
2023/03/11 02:47:00;;;;;;;25.13;19.00;;;;;;;;;;4972376;28;20548;-69
2023/03/11 02:49:29;;;;;;;26.42;19.48;;;;;;;;;;4975217;28;20043;-69
2023/03/11 02:51:57;;;;;;;26.77;18.33;;;;;;;;;;4972314;28;20051;-69
2023/03/11 02:54:24;;;;;;;25.45;18.48;;;;;;;;;;4991894;28;20043;-69
2023/03/11 02:56:52;;;;;;;26.42;18.20;;;;;;;;;;4972361;28;20046;-69
2023/03/11 02:59:19;;;;;;;29.13;18.52;;;;;;;;;;4973887;28;20457;-69
2023/03/11 03:01:47;;;;;;;27.20;19.70;;;;;;;;;;4972238;28;20053;-69
2023/03/11 03:04:15;;;;;;;26.55;19.27;;;;;;;;;;4973175;28;20093;-69
2023/03/11 03:06:42;;;;;;;27.38;19.45;;;;;;;;;;4992849;28;20066;-69
2023/03/11 03:09:10;;;;;;;28.13;20.73;;;;;;;;;;4972490;28;20047;-69
2023/03/11 03:11:37;;;;;;;27.05;21.30;;;;;;;;;;4992737;28;20050;-68
2023/03/11 03:14:04;;;;;;;28.77;22.40;;;;;;;;;;4975287;28;20050;-69
2023/03/11 03:16:32;;;;;;;29.85;22.63;;;;;;;;;;4975970;28;20047;-69
2023/03/11 03:19:00;;;;;;;29.65;22.13;;;;;;;;;;4991925;28;20077;-69
2023/03/11 03:21:27;;;;;;;27.83;21.25;;;;;;;;;;4978440;28;20049;-68
2023/03/11 03:23:55;;;;;;;29.70;20.90;;;;;;;;;;4975879;28;20061;-67
2023/03/11 03:26:23;;;;;;;27.55;20.75;;;;;;;;;;4977564;28;20047;-68
2023/03/11 03:28:50;;;;;;;29.40;21.17;;;;;;;;;;4975655;28;20039;-67
2023/03/11 03:31:18;;;;;;;29.48;21.10;;;;;;;;;;4977043;28;20051;-68
2023/03/11 03:33:46;;;;;;;25.70;20.60;;;;;;;;;;4975585;28;20043;-68
2023/03/11 03:36:14;;;;;;;23.30;18.25;;;;;;;;;;4976512;28;20049;-68
2023/03/11 03:38:52;;;;;;;28.45;18.75;;;;;;;;;;4975583;28;20043;-68
2023/03/11 03:41:20;;;;;;;24.50;17.90;;;;;;;;;;4977222;28;20047;-68
2023/03/11 03:43:48;;;;;;;22.65;16.08;;;;;;;;;;4975486;28;20512;-68
2023/03/11 03:46:16;;;;;;;19.27;14.13;;;;;;;;;;4976528;28;20134;-68
2023/03/11 03:48:47;;;;;;;16.85;12.45;;;;;;;;;;4975415;28;20453;-68
2023/03/11 03:51:14;;;;;;;17.30;11.55;;;;;;;;;;4976249;28;20043;-68
2023/03/11 03:53:55;;;;;;;15.88;11.07;;;;;;;;;;4975189;28;20042;-68
2023/03/11 03:56:24;;;;;;;15.43;10.75;;;;;;;;;;4977298;28;20046;-68
2023/03/11 03:58:53;;;;;;;14.13;10.70;;;;;;;;;;4975136;28;20065;-68
2023/03/11 04:01:22;;;;;;;17.35;12.40;;;;;;;;;;4977363;28;20094;-68
2023/03/11 04:03:50;;;;;;;19.25;11.45;;;;;;;;;;4975026;28;20046;-68
2023/03/11 04:06:17;;;;;;;16.48;11.32;;;;;;;;;;4976580;28;20588;-68
2023/03/11 04:08:48;;;;;;;14.57;10.43;;;;;;;;;;4975140;28;20137;-68
2023/03/11 04:11:15;;;;;;;15.90;10.73;;;;;;;;;;4976199;28;20055;-68
2023/03/11 04:13:43;;;;;;;15.13;10.98;;;;;;;;;;4995740;28;20121;-68
2023/03/11 04:16:15;;;;;;;15.95;10.05;;;;;;;;;;4975504;28;20513;-68
2023/03/11 04:18:43;;;;;;;15.77;10.45;;;;;;;;;;4974957;28;20051;-68
2023/03/11 04:21:11;;;;;;;17.15;11.07;;;;;;;;;;4994984;28;20125;-68
2023/03/11 04:23:38;;;;;;;14.00;11.43;;;;;;;;;;4995122;28;20038;-68
2023/03/11 04:26:07;;;;;;;14.63;11.52;;;;;;;;;;4977440;28;20554;-68
2023/03/11 04:28:36;;;;;;;14.52;11.98;;;;;;;;;;4977723;28;20062;-68
2023/03/11 04:31:04;;;;;;;17.00;12.07;;;;;;;;;;4977709;28;20540;-68
2023/03/11 04:33:32;;;;;;;16.50;11.25;;;;;;;;;;4977965;28;20054;-68
2023/03/11 04:36:04;;;;;;;14.10;11.45;;;;;;;;;;4977668;28;20073;-68
2023/03/11 04:38:33;;;;;;;17.27;11.70;;;;;;;;;;4977714;28;20129;-68
2023/03/11 04:41:04;;;;;;;15.00;11.55;;;;;;;;;;4995273;28;20054;-69
2023/03/11 04:43:33;;;;;;;13.73;10.52;;;;;;;;;;4977632;28;20468;-68
2023/03/11 04:46:01;;;;;;;14.43;10.90;;;;;;;;;;4977778;28;20089;-68
2023/03/11 04:48:28;;;;;;;16.35;10.70;;;;;;;;;;4977616;28;20051;-68
2023/03/11 04:50:56;;;;;;;13.85;9.88;;;;;;;;;;4977515;28;20043;-68
2023/03/11 04:53:24;;;;;;;16.40;11.30;;;;;;;;;;4977415;28;20054;-68
2023/03/11 04:55:52;;;;;;;13.85;10.63;;;;;;;;;;4994777;28;20096;-68
2023/03/11 04:58:21;;;;;;;15.63;10.90;;;;;;;;;;4977293;28;20394;-68
2023/03/11 05:00:48;;;;;;;17.45;11.82;;;;;;;;;;4977280;28;20066;-68
2023/03/11 05:03:16;;;;;;;16.23;10.60;;;;;;;;;;4994771;28;20547;-68
2023/03/11 05:05:44;;;;;;;14.13;10.00;;;;;;;;;;4994706;28;20050;-68
2023/03/11 05:08:12;;;;;;;14.50;10.40;;;;;;;;;;4976993;28;20050;-68
2023/03/11 05:10:41;;;;;;;15.40;9.88;;;;;;;;;;4977031;28;20416;-68
2023/03/11 05:13:09;;;;;;;18.95;11.55;;;;;;;;;;4977052;28;20453;-68
2023/03/11 05:15:40;;;;;;;13.48;9.60;;;;;;;;;;4976893;28;20046;-69
2023/03/11 05:18:08;;;;;;;15.40;11.35;;;;;;;;;;4976800;28;20096;-69
2023/03/11 05:20:37;;;;;;;16.40;10.88;;;;;;;;;;4976667;28;20046;-68
2023/03/11 05:23:06;;;;;;;19.45;13.32;;;;;;;;;;4976804;28;20057;-68
2023/03/11 05:25:35;;;;;;;14.98;11.10;;;;;;;;;;4976590;28;20050;-68
2023/03/11 05:28:04;;;;;;;13.38;9.82;;;;;;;;;;4976658;28;20047;-68
2023/03/11 05:30:35;;;;;;;15.45;10.57;;;;;;;;;;4976770;28;20035;-68
2023/03/11 05:33:03;;;;;;;11.48;8.75;;;;;;;;;;4976623;28;20053;-68
2023/03/11 05:35:31;;;;;;;12.60;9.13;;;;;;;;;;4976355;28;20507;-68
2023/03/11 05:37:59;;;;;;;11.35;8.35;;;;;;;;;;4976487;28;20046;-68
2023/03/11 05:40:28;;;;;;;15.90;8.07;;;;;;;;;;4976501;28;20069;-68
2023/03/11 05:42:56;;;;;;;8.35;6.95;;;;;;;;;;4993954;28;20046;-68
2023/03/11 05:45:24;;;;;;;8.55;6.28;;;;;;;;;;4976332;28;20050;-68
2023/03/11 05:47:54;;;;;;;7.07;5.55;;;;;;;;;;4976606;28;20049;-68
2023/03/11 05:50:21;;;;;;;8.85;5.05;;;;;;;;;;4976229;28;20042;-68
2023/03/11 05:52:50;;;;;;;8.50;4.68;;;;;;;;;;4993814;28;20054;-68
2023/03/11 05:55:19;;;;;;;5.47;4.55;;;;;;;;;;4993691;28;20046;-68
2023/03/11 05:57:47;;;;;;;6.28;4.53;;;;;;;;;;4976243;28;20054;-68
2023/03/11 06:00:14;;;;;;;6.20;4.90;;;;;;;;;;4976100;28;20097;-68
2023/03/11 06:02:47;;;;;;;5.43;4.25;;;;;;;;;;4976147;28;20065;-68
2023/03/11 06:05:17;;;;;;;6.47;5.07;;;;;;;;;;4976100;28;20480;-68
2023/03/11 06:07:47;;;;;;;6.97;4.40;;;;;;;;;;4975933;28;20057;-68
2023/03/11 06:10:15;;;;;;;6.28;4.45;;;;;;;;;;4993507;28;20066;-68
2023/03/11 06:12:42;;;;;;;6.00;4.20;;;;;;;;;;4975978;28;20065;-68
2023/03/11 06:15:18;;;;;;;7.30;4.45;;;;;;;;;;4976193;28;20391;-69
2023/03/11 06:17:46;;;;;;;5.47;4.45;;;;;;;;;;4975809;28;20049;-68
2023/03/11 06:20:13;;;;;;;6.50;4.78;;;;;;;;;;4975761;28;20133;-68
2023/03/11 06:22:42;;;;;;;7.60;4.60;;;;;;;;;;4975759;28;20455;-68
2023/03/11 06:25:10;;;;;;;6.38;4.72;;;;;;;;;;4975879;28;20500;-68
2023/03/11 06:27:39;;;;;;;6.57;4.40;;;;;;;;;;4975925;28;20138;-68
2023/03/11 06:30:07;;;;;;;5.70;4.03;;;;;;;;;;4975686;28;20054;-68
2023/03/11 06:32:43;;;;;;;5.20;4.57;;;;;;;;;;4975761;28;20050;-68
2023/03/11 06:35:11;;;;;;;7.30;4.72;;;;;;;;;;4975511;28;20050;-68
2023/03/11 06:37:39;;;;;;;6.75;4.70;;;;;;;;;;4975693;28;20044;-68
2023/03/11 06:40:08;;;;;;;6.07;4.38;;;;;;;;;;4975854;28;20061;-69
2023/03/11 06:42:36;;;;;;;7.65;4.68;;;;;;;;;;4993046;28;20039;-69
2023/03/11 06:45:05;;;;;;;5.72;4.85;;;;;;;;;;4975486;28;20050;-68
2023/03/11 06:47:33;;;;;;;5.88;4.70;;;;;;;;;;4976371;28;20129;-68
2023/03/11 06:50:05;;;;;;;7.07;4.50;;;;;;;;;;4979706;28;20093;-69
2023/03/11 06:52:33;;;;;;;6.10;4.65;;;;;;;;;;4971636;28;20145;-69
2023/03/11 06:55:02;;;;;;;6.47;4.78;;;;;;;;;;4979368;28;20034;-69
2023/03/11 06:57:31;;;;;;;6.20;4.75;;;;;;;;;;4979366;28;20056;-69
2023/03/11 07:00:05;;;;;;;5.85;4.40;;;;;;;;;;4975777;28;20071;-68
2023/03/11 07:02:34;;;;;;;6.18;4.20;;;;;;;;;;4973774;28;20436;-69
2023/03/11 07:05:01;;;;;;;5.55;4.30;;;;;;;;;;4963579;28;21074;-69
2023/03/11 07:07:29;;;;;;;5.53;4.35;;;;;;;;;;4959825;28;20046;-69
2023/03/11 07:09:57;;;;;;;6.65;4.38;;;;;;;;;;4964342;28;20129;-68
2023/03/11 07:12:24;;;;;;;6.65;4.18;;;;;;;;;;4998073;28;20132;-69
2023/03/11 07:14:56;;;;;;;5.55;4.70;;;;;;;;;;4998143;28;20050;-68
2023/03/11 07:17:23;;;;;;;5.20;4.43;;;;;;;;;;4998673;28;20138;-69
2023/03/11 07:19:52;;;;;;;5.65;4.38;;;;;;;;;;4998457;28;20056;-68
2023/03/11 07:22:20;;;;;;;4.80;4.00;;;;;;;;;;5016169;28;20042;-68
2023/03/11 07:24:48;;;;;;;5.05;4.15;;;;;;;;;;5015831;28;20588;-68
2023/03/11 07:27:16;;;;;;;7.38;4.07;;;;;;;;;;5013959;28;20050;-68
2023/03/11 07:29:44;;;;;;;5.47;3.85;;;;;;;;;;4986042;28;20121;-68
2023/03/11 07:32:11;;;;;;;5.05;3.60;;;;;;;;;;4985050;28;20046;-68
2023/03/11 07:34:39;;;;;;;4.65;3.80;;;;;;;;;;4976255;28;20125;-68
2023/03/11 07:37:06;;;;;;;4.93;3.72;;;;;;;;;;4995068;28;20121;-68
2023/03/11 07:39:33;;;;;;;4.65;3.70;;;;;;;;;;4995842;28;20043;-69
2023/03/11 07:42:01;;;;;;;6.63;3.83;;;;;;;;;;4996263;28;20121;-68
2023/03/11 07:44:34;;;;;;;7.03;4.40;;;;;;;;;;4975269;28;20039;-69
2023/03/11 07:47:05;;;;;;;5.97;4.20;;;;;;;;;;4987638;28;20042;-68
2023/03/11 07:49:34;;;;;;;7.20;4.22;;;;;;;;;;4979853;28;20389;-70
2023/03/11 07:52:02;;;;;;;6.40;4.38;;;;;;;;;;4995396;28;20400;-71
2023/03/11 07:54:29;;;;;;;5.55;3.80;;;;;;;;;;4995896;28;20389;-69
2023/03/11 07:56:57;;;;;;;6.32;4.05;;;;;;;;;;4994394;28;20532;-69
2023/03/11 07:59:25;;;;;;;5.90;3.63;;;;;;;;;;4995654;28;20035;-71
2023/03/11 08:01:52;;;;;;;5.00;3.22;;;;;;;;;;4995835;28;20049;-69
2023/03/11 08:04:20;;;;;;;5.45;3.53;;;;;;;;;;4996058;28;20070;-70
2023/03/11 08:06:47;;;;;;;4.45;3.17;;;;;;;;;;4995554;28;20121;-71
2023/03/11 08:09:15;;;;;;;4.20;3.25;;;;;;;;;;4995403;28;20050;-71
2023/03/11 08:11:42;;;;;;;5.05;3.58;;;;;;;;;;4995831;28;20392;-69
2023/03/11 08:14:10;;;;;;;4.68;3.33;;;;;;;;;;4995600;28;20511;-71
2023/03/11 08:16:39;;;;;;;4.85;3.50;;;;;;;;;;4995453;28;20038;-70
2023/03/11 08:19:06;;;;;;;5.00;3.33;;;;;;;;;;4995319;28;20038;-71
2023/03/11 08:21:34;;;;;;;3.30;2.97;;;;;;;;;;4977880;28;20054;-70
2023/03/11 08:24:01;;;;;;;3.53;3.03;;;;;;;;;;4993926;28;20042;-70
2023/03/11 08:26:32;;;;;;;4.90;3.25;;;;;;;;;;4975578;28;20046;-69
2023/03/11 08:28:59;;;;;;;6.25;3.60;;;;;;;;;;4980572;28;20050;-68
2023/03/11 08:31:28;;;;;;;4.15;3.55;;;;;;;;;;4988349;28;20042;-68
2023/03/11 08:33:57;;;;;;;4.53;3.28;;;;;;;;;;4994033;28;20046;-68
2023/03/11 08:36:25;;;;;;;4.13;3.08;;;;;;;;;;4977822;28;20109;-68
2023/03/11 08:38:53;;;;;;;4.63;3.38;;;;;;;;;;4995164;28;20097;-68
2023/03/11 08:41:20;;;;;;;3.13;2.75;;;;;;;;;;4995158;28;20051;-68
2023/03/11 08:43:48;;;;;;;5.57;3.25;;;;;;;;;;4994385;28;20492;-68
2023/03/11 08:46:33;;;;;;;4.70;2.67;;;;;;;;;;4993646;28;20046;-69
2023/03/11 08:49:01;;;;;;;4.28;2.83;;;;;;;;;;4993162;28;20523;-67
2023/03/11 08:51:30;;;;;;;3.70;2.70;;;;;;;;;;4994211;28;20049;-68
2023/03/11 08:53:58;;;;;;;3.72;2.78;;;;;;;;;;4993969;28;20452;-68
2023/03/11 08:56:25;;;;;;;4.20;2.67;;;;;;;;;;4994326;28;20038;-69
2023/03/11 08:58:53;;;;;;;3.33;2.58;;;;;;;;;;4994662;28;20042;-70
2023/03/11 09:01:22;;;;;;;3.88;3.10;;;;;;;;;;4994764;28;20039;-68
2023/03/11 09:03:50;;;;;;;3.50;2.97;;;;;;;;;;4977269;28;20104;-69
2023/03/11 09:06:18;;;;;;;5.20;3.00;;;;;;;;;;4994754;28;20431;-70
2023/03/11 09:08:46;;;;;;;4.28;3.22;;;;;;;;;;4994455;28;20056;-68
2023/03/11 09:11:14;;;;;;;6.18;3.50;;;;;;;;;;4994072;28;20116;-68
2023/03/11 09:13:42;;;;;;;5.10;4.00;;;;;;;;;;4994772;28;20136;-69
2023/03/11 09:16:14;;;;;;;3.83;3.25;;;;;;;;;;4994428;28;20042;-68
2023/03/11 09:18:41;;;;;;;4.15;3.05;;;;;;;;;;4994364;28;20050;-69
2023/03/11 09:21:09;;;;;;;5.82;3.47;;;;;;;;;;4994307;28;20452;-68
2023/03/11 09:23:37;;;;;;;4.03;3.17;;;;;;;;;;4994379;28;20089;-69
2023/03/11 09:26:04;;;;;;;4.97;3.10;;;;;;;;;;4994225;28;20046;-70
2023/03/11 09:28:32;;;;;;;4.90;3.28;;;;;;;;;;4994209;28;20061;-69
2023/03/11 09:30:59;;;;;;;4.65;3.58;;;;;;;;;;4994231;28;20057;-70
2023/03/11 09:33:27;;;;;;;4.05;2.90;;;;;;;;;;4976678;28;20477;-69
2023/03/11 09:35:54;;;;;;;3.78;3.20;;;;;;;;;;4994163;28;20077;-68
2023/03/11 09:38:22;;;;;;;3.88;3.20;;;;;;;;;;4994014;28;20555;-68
2023/03/11 09:40:57;;;;;;;5.25;3.30;;;;;;;;;;4993898;28;20505;-69
2023/03/11 09:43:39;;;;;;;5.53;3.70;;;;;;;;;;4992766;28;20472;-68
2023/03/11 09:46:26;;;;;;;3.72;2.70;;;;;;;;;;4994010;28;20424;-69
2023/03/11 09:48:58;;;;;;;3.38;2.78;;;;;;;;;;4993852;28;20126;-68
2023/03/11 09:51:27;;;;;;;5.07;3.00;;;;;;;;;;4993887;28;20117;-68
2023/03/11 09:53:59;;;;;;;2.78;2.42;;;;;;;;;;4993903;28;20065;-69
2023/03/11 09:56:27;;;;;;;3.42;2.50;;;;;;;;;;4994127;28;20050;-68
2023/03/11 09:58:56;;;;;;;3.92;2.83;;;;;;;;;;4993728;28;20069;-68
2023/03/11 10:01:28;;;;;;;4.10;2.80;;;;;;;;;;4993413;28;20070;-69
2023/03/11 10:03:57;;;;;;;4.20;3.58;;;;;;;;;;4993536;28;20131;-69
2023/03/11 10:06:26;;;;;;;4.90;2.83;;;;;;;;;;4993690;28;20125;-68
2023/03/11 10:09:07;;;;;;;5.53;3.10;;;;;;;;;;4993468;28;20070;-68
2023/03/11 10:11:47;;;;;;;7.78;3.72;;;;;;;;;;4993448;28;20074;-68
2023/03/11 10:14:26;;;;;;;5.00;3.83;;;;;;;;;;4993522;28;20412;-68
2023/03/11 10:16:57;;;;;;;5.70;4.00;;;;;;;;;;4993326;28;20042;-68
2023/03/11 10:19:44;;;;;;;5.35;3.22;;;;;;;;;;4993256;28;20489;-68
2023/03/11 10:22:19;;;;;;;4.55;3.30;;;;;;;;;;4992538;28;20046;-67
2023/03/11 10:24:57;;;;;;;3.80;3.25;;;;;;;;;;4993480;28;20045;-68
2023/03/11 10:27:29;;;;;;;3.30;3.00;;;;;;;;;;4993455;28;20041;-68
2023/03/11 10:30:09;;;;;;;4.03;3.63;;;;;;;;;;4993314;28;20051;-68
2023/03/11 10:32:46;;;;;;;4.00;3.60;;;;;;;;;;4993279;28;20044;-68
2023/03/11 10:35:18;;;;;;;3.72;3.42;;;;;;;;;;4993226;28;20046;-67
2023/03/11 10:37:50;;;;;;;4.32;3.92;;;;;;;;;;4993265;28;20042;-68
2023/03/11 10:40:21;;;;;;;5.03;3.92;;;;;;;;;;4993357;28;20070;-69
2023/03/11 10:42:51;;;;;;;4.00;3.30;;;;;;;;;;4993123;28;20489;-69
2023/03/11 10:45:22;;;;;;;3.92;3.55;;;;;;;;;;4993015;28;20089;-68
2023/03/11 10:47:50;;;;;;;4.68;3.80;;;;;;;;;;4993045;28;20046;-67
2023/03/11 10:50:18;;;;;;;4.00;3.60;;;;;;;;;;4992794;28;20070;-67
2023/03/11 10:53:06;;;;;;;3.75;3.45;;;;;;;;;;4993016;28;20039;-67
2023/03/11 10:55:34;;;;;;;4.32;3.92;;;;;;;;;;4992941;28;20049;-68
2023/03/11 10:58:11;;;;;;;4.32;3.55;;;;;;;;;;4992898;28;20038;-68
2023/03/11 11:00:39;;;;;;;4.60;3.50;;;;;;;;;;4992974;28;20519;-67
2023/03/11 11:03:15;;;;;;;3.70;3.22;;;;;;;;;;4992812;28;20039;-69
2023/03/11 11:05:43;;;;;;;3.92;3.00;;;;;;;;;;4992815;28;20579;-69
2023/03/11 11:08:19;;;;;;;4.45;2.85;;;;;;;;;;4993005;28;20042;-69
2023/03/11 11:10:54;;;;;;;3.83;2.88;;;;;;;;;;4993009;28;20051;-69
2023/03/11 11:13:26;;;;;;;4.05;2.95;;;;;;;;;;4992865;28;20517;-67
2023/03/11 11:15:53;;;;;;;8.27;3.72;;;;;;;;;;4992922;28;20050;-67
2023/03/11 11:18:24;;;;;;;6.03;3.47;;;;;;;;;;4992920;28;20066;-68
2023/03/11 11:20:54;;;;;;;4.30;3.72;;;;;;;;;;4992591;28;20078;-68
2023/03/11 11:23:26;;;;;;;5.57;3.58;;;;;;;;;;4992717;28;20046;-69
2023/03/11 11:25:58;;;;;;;6.15;3.90;;;;;;;;;;4992741;28;20042;-68
2023/03/11 11:28:26;;;;;;;4.25;3.70;;;;;;;;;;4991295;28;20137;-67
2023/03/11 11:30:56;;;;;;;6.85;3.60;;;;;;;;;;4991803;28;20050;-67
2023/03/11 11:33:25;;;;;;;4.78;3.47;;;;;;;;;;4992965;28;20441;-68
2023/03/11 11:35:54;;;;;;;29.63;10.02;;;;;;;;;;4996365;28;20089;-68
2023/03/11 11:38:23;;;;;;;4.38;2.65;;;;;;;;;;4996286;28;20034;-69
2023/03/11 11:40:51;;;;;;;3.78;3.40;;;;;;;;;;4996355;28;20115;-69
2023/03/11 11:43:24;;;;;;;4.50;2.90;;;;;;;;;;4996226;28;20056;-68
2023/03/11 11:45:54;;;;;;;4.53;3.38;;;;;;;;;;4996254;28;20043;-67
2023/03/11 11:48:26;;;;;;;4.93;3.55;;;;;;;;;;4995786;28;20046;-68
2023/03/11 11:50:57;;;;;;;4.47;3.42;;;;;;;;;;4996308;28;20050;-68
2023/03/11 11:53:24;;;;;;;4.70;3.35;;;;;;;;;;4995913;28;20066;-68
2023/03/11 11:55:53;;;;;;;5.75;3.30;;;;;;;;;;4996030;28;20042;-68
2023/03/11 11:58:20;;;;;;;5.53;3.63;;;;;;;;;;4995340;28;20053;-67
2023/03/11 12:01:07;;;;;;;3.95;2.90;;;;;;;;;;4995875;28;20105;-68
2023/03/11 12:03:42;;;;;;;2.83;2.50;;;;;;;;;;4978350;28;20121;-70
2023/03/11 12:06:17;;;;;;;3.47;2.20;;;;;;;;;;4999908;28;20065;-71
2023/03/11 12:09:04;;;;;;;2.42;1.98;;;;;;;;;;5015265;28;20077;-70
2023/03/11 12:11:41;;;;;;;3.55;2.67;;;;;;;;;;5015251;28;20053;-70
2023/03/11 12:14:16;;;;;;;6.68;3.25;;;;;;;;;;5015221;28;20076;-70
2023/03/11 12:16:44;;;;;;;3.42;2.78;;;;;;;;;;5015486;28;20070;-70
2023/03/11 12:19:11;;;;;;;3.50;2.42;;;;;;;;;;5014994;28;20098;-70
2023/03/11 12:21:46;;;;;;;4.13;2.22;;;;;;;;;;5015130;28;20129;-70
2023/03/11 12:24:14;;;;;;;;;;;;;;;;;;5011737;28;20369;-71
2023/03/11 12:26:43;;;;;;;4.25;1.48;;;;;;;;;;4975400;28;20327;-71
2023/03/11 12:29:16;;;;;;;1.77;1.33;;;;;;;;;;4977030;28;20074;-71
2023/03/11 12:31:45;;;;;;;1.27;1.17;;;;;;;;;;4994863;28;20105;-71
2023/03/11 12:34:16;;;;;;;2.00;1.35;;;;;;;;;;4995216;28;20396;-71
2023/03/11 12:36:44;;;;;;;1.95;1.20;;;;;;;;;;4995031;28;20500;-71
2023/03/11 12:39:27;;;;;;;2.47;1.70;;;;;;;;;;4990542;28;20038;-70
2023/03/11 12:42:10;;;;;;;1.65;1.20;;;;;;;;;;4994501;28;20129;-71
2023/03/11 12:44:38;;;;;;;2.05;1.30;;;;;;;;;;4994439;28;20046;-72
2023/03/11 12:47:12;;;;;;;2.45;1.08;;;;;;;;;;4994353;28;20093;-71
2023/03/11 12:49:40;;;;;;;1.70;0.95;;;;;;;;;;4994784;28;20092;-71
2023/03/11 12:52:11;;;;;;;1.65;1.35;;;;;;;;;;4994752;28;20038;-72
2023/03/11 12:54:39;;;;;;;1.95;1.23;;;;;;;;;;4993484;28;20050;-71
2023/03/11 12:57:19;;;;;;;2.33;1.50;;;;;;;;;;4994479;28;20074;-71
2023/03/11 12:59:55;;;;;;;2.33;1.17;;;;;;;;;;4989447;28;20070;-70
2023/03/11 13:02:42;;;;;;;1.20;1.10;;;;;;;;;;4994604;28;20078;-71
2023/03/11 13:05:09;;;;;;;2.28;1.20;;;;;;;;;;4994321;28;20100;-71
2023/03/11 13:07:42;;;;;;;1.27;1.17;;;;;;;;;;4994438;28;20084;-71
2023/03/11 13:10:12;;;;;;;2.70;1.55;;;;;;;;;;4994454;28;20050;-71
2023/03/11 13:12:42;;;;;;;2.70;1.55;;;;;;;;;;4994631;28;20400;-71
2023/03/11 13:15:21;;;;;;;2.17;1.67;;;;;;;;;;4994297;28;20050;-71
2023/03/11 13:17:57;;;;;;;3.30;2.17;;;;;;;;;;4994069;28;20484;-71
2023/03/11 13:20:40;;;;;;;2.13;1.67;;;;;;;;;;4994478;28;20050;-71
2023/03/11 13:23:08;;;;;;;3.80;1.90;;;;;;;;;;4993933;28;20038;-71
2023/03/11 13:25:40;;;;;;;3.72;2.28;;;;;;;;;;4993885;28;20042;-71
2023/03/11 13:28:08;;;;;;;2.65;1.70;;;;;;;;;;4993547;28;20507;-71
2023/03/11 13:30:40;;;;;;;2.72;1.92;;;;;;;;;;4991981;28;20053;-71
2023/03/11 13:33:21;;;;;;;1.80;1.35;;;;;;;;;;4992766;28;20045;-71
2023/03/11 13:35:58;;;;;;;2.58;1.50;;;;;;;;;;4993004;28;20503;-71
2023/03/11 13:38:43;;;;;;;2.28;1.10;;;;;;;;;;4990971;28;20069;-70
2023/03/11 13:41:14;;;;;;;1.40;1.15;;;;;;;;;;4992800;28;20034;-70
2023/03/11 13:43:48;;;;;;;2.13;1.40;;;;;;;;;;4993058;28;20388;-70
2023/03/11 13:46:37;;;;;;;1.60;1.30;;;;;;;;;;4993206;28;20076;-70
2023/03/11 13:49:06;;;;;;;1.85;1.30;;;;;;;;;;4993270;28;20101;-72
2023/03/11 13:51:37;;;;;;;2.85;1.40;;;;;;;;;;4992650;28;20046;-70
2023/03/11 13:54:10;;;;;;;3.08;1.65;;;;;;;;;;4992291;28;20042;-69
2023/03/11 13:56:42;;;;;;;0.80;0.80;;;;;;;;;;4992747;28;20122;-70
2023/03/11 13:59:17;;;;;;;1.67;1.20;;;;;;;;;;4992577;28;20516;-68
2023/03/11 14:01:49;;;;;;;2.35;1.20;;;;;;;;;;4971022;28;20039;-68
2023/03/11 14:04:20;;;;;;;1.65;1.10;;;;;;;;;;4985331;28;20401;-68
2023/03/11 14:06:48;;;;;;;3.20;1.27;;;;;;;;;;4992853;28;20051;-69
2023/03/11 14:09:18;;;;;;;2.67;2.17;;;;;;;;;;4992694;28;20035;-68
2023/03/11 14:11:47;;;;;;;3.03;1.40;;;;;;;;;;4992356;28;20042;-68
2023/03/11 14:14:29;;;;;;;2.03;1.60;;;;;;;;;;4992090;28;20113;-69
2023/03/11 14:17:00;;;;;;;2.83;1.88;;;;;;;;;;4992080;28;20046;-69
2023/03/11 14:19:27;;;;;;;2.53;1.80;;;;;;;;;;4992715;28;20050;-69
2023/03/11 14:21:55;;;;;;;3.53;2.00;;;;;;;;;;4992519;28;20057;-68
2023/03/11 14:24:24;;;;;;;2.35;1.92;;;;;;;;;;4992959;28;20042;-70
2023/03/11 14:26:54;;;;;;;3.88;2.03;;;;;;;;;;4963618;28;20043;-70
2023/03/11 14:29:38;;;;;;;2.50;2.30;;;;;;;;;;4984913;28;20046;-69
2023/03/11 14:32:24;;;;;;;2.07;1.80;;;;;;;;;;4989792;28;20046;-70
2023/03/11 14:34:52;;;;;;;4.22;2.10;;;;;;;;;;4980833;28;20049;-69
2023/03/11 14:37:30;;;;;;;6.10;2.20;;;;;;;;;;4974929;28;20145;-67
2023/03/11 14:39:58;;;;;;;2.25;2.00;;;;;;;;;;4992488;28;20069;-68
2023/03/11 14:42:29;;;;;;;4.60;2.60;;;;;;;;;;4973539;28;20511;-69
2023/03/11 14:45:04;;;;;;;3.05;1.70;;;;;;;;;;4980229;28;20119;-68
2023/03/11 14:47:34;;;;;;;4.22;1.77;;;;;;;;;;4973223;28;20047;-68
2023/03/11 14:50:04;;;;;;;3.72;2.22;;;;;;;;;;4975198;28;20039;-68